Time;durP1;ratioP1;P1;durP2;ratioP2;P2;SDS_P1;SDS_P2;PMS_P1;PMS_P2;Temp;Humidity;BMP_temperature;BMP_pressure;BME280_temperature;BME280_humidity;BME280_pressure;Samples;Min_cycle;Max_cycle;Signal;HPM_P1;HPM_P2
2021/11/23 00:00:44;;;;;;;2.65;2.53;;;2.40;99.90;;;;;;5017025;28;20284;-77
2021/11/23 00:03:11;;;;;;;3.25;2.50;;;2.40;99.90;;;;;;5032787;28;20193;-77
2021/11/23 00:05:37;;;;;;;4.07;2.67;;;2.40;99.90;;;;;;5032968;28;20273;-77
2021/11/23 00:08:04;;;;;;;4.40;2.50;;;2.30;99.90;;;;;;5032679;28;20245;-79
2021/11/23 00:10:32;;;;;;;3.00;2.53;;;2.30;99.90;;;;;;5032465;28;20222;-77
2021/11/23 00:12:58;;;;;;;4.55;2.50;;;2.30;99.90;;;;;;5033041;28;20593;-77
2021/11/23 00:15:26;;;;;;;4.13;3.38;;;2.30;99.90;;;;;;5032908;28;20277;-78
2021/11/23 00:17:53;;;;;;;3.47;2.55;;;2.30;99.90;;;;;;5032717;28;20814;-78
2021/11/23 00:20:20;;;;;;;3.47;3.17;;;2.20;99.90;;;;;;5032359;28;20268;-78
2021/11/23 00:22:46;;;;;;;3.15;2.90;;;2.30;99.90;;;;;;5032854;28;20194;-78
2021/11/23 00:25:13;;;;;;;3.47;3.10;;;2.30;99.90;;;;;;5032559;28;20249;-78
2021/11/23 00:27:39;;;;;;;3.50;3.30;;;2.20;99.90;;;;;;5032589;28;20183;-78
2021/11/23 00:30:07;;;;;;;6.47;3.30;;;2.20;99.90;;;;;;5032562;28;20269;-78
2021/11/23 00:32:35;;;;;;;3.65;3.28;;;2.20;99.90;;;;;;5031641;28;20229;-78
2021/11/23 00:35:01;;;;;;;3.90;3.50;;;2.20;99.90;;;;;;5032411;28;20218;-85
2021/11/23 00:37:28;;;;;;;4.90;3.70;;;2.20;99.90;;;;;;5032519;28;20646;-77
2021/11/23 00:39:56;;;;;;;4.57;4.07;;;2.20;99.90;;;;;;5030778;28;20281;-77
2021/11/23 00:42:23;;;;;;;4.30;3.90;;;2.20;99.90;;;;;;5024011;28;20293;-78
2021/11/23 00:44:49;;;;;;;3.97;3.08;;;2.10;99.90;;;;;;5027873;28;20554;-78
2021/11/23 00:47:16;;;;;;;4.50;3.25;;;2.10;99.90;;;;;;5031766;28;20277;-77
2021/11/23 00:49:44;;;;;;;4.60;4.00;;;2.10;99.90;;;;;;5031774;28;20277;-77
2021/11/23 00:52:10;;;;;;;5.93;3.72;;;2.10;99.90;;;;;;5031741;28;20293;-77
2021/11/23 00:54:37;;;;;;;3.80;3.40;;;2.10;99.90;;;;;;5031531;28;20194;-77
2021/11/23 00:57:04;;;;;;;4.68;3.78;;;2.10;99.90;;;;;;5031558;28;20317;-77
2021/11/23 00:59:33;;;;;;;5.70;3.90;;;2.10;99.90;;;;;;5031589;28;20218;-77
2021/11/23 01:02:00;;;;;;;4.20;3.80;;;2.10;99.90;;;;;;5031687;28;20206;-77
2021/11/23 01:04:26;;;;;;;4.35;3.58;;;2.10;99.90;;;;;;5031433;28;20281;-78
2021/11/23 01:06:54;;;;;;;5.43;3.97;;;2.10;99.90;;;;;;5031553;28;20273;-77
2021/11/23 01:09:21;;;;;;;5.68;4.22;;;2.10;99.90;;;;;;5031703;28;20594;-77
2021/11/23 01:11:48;;;;;;;4.97;4.32;;;2.10;99.90;;;;;;5031570;28;20274;-78
2021/11/23 01:14:14;;;;;;;5.35;4.50;;;2.10;99.90;;;;;;5031602;28;20274;-77
2021/11/23 01:16:44;;;;;;;7.53;4.70;;;2.10;99.90;;;;;;5031326;28;20615;-77
2021/11/23 01:19:11;;;;;;;5.20;4.70;;;2.00;99.90;;;;;;5031609;28;20248;-77
2021/11/23 01:21:37;;;;;;;5.72;5.22;;;2.10;99.90;;;;;;5031513;28;20278;-77
2021/11/23 01:24:06;;;;;;;6.30;4.22;;;2.10;99.90;;;;;;5031667;28;20274;-78
2021/11/23 01:26:32;;;;;;;8.20;5.70;;;2.10;99.90;;;;;;5031372;28;20278;-78
2021/11/23 01:28:59;;;;;;;7.85;5.55;;;2.10;99.90;;;;;;5031971;28;20278;-78
2021/11/23 01:31:25;;;;;;;6.35;4.75;;;2.10;99.90;;;;;;5031444;28;20278;-79
2021/11/23 01:33:52;;;;;;;5.40;4.90;;;2.10;99.90;;;;;;5034721;28;20273;-77
2021/11/23 01:36:19;;;;;;;8.65;5.60;;;2.10;99.90;;;;;;5035029;28;20186;-77
2021/11/23 01:38:46;;;;;;;9.75;6.10;;;2.10;99.90;;;;;;5035399;28;20277;-77
2021/11/23 01:41:14;;;;;;;6.68;4.90;;;2.10;99.90;;;;;;5035231;28;20618;-77
2021/11/23 01:43:40;;;;;;;8.77;5.80;;;2.10;99.90;;;;;;5028713;28;20286;-78
2021/11/23 01:46:07;;;;;;;8.05;5.88;;;2.10;99.90;;;;;;5034997;28;20642;-78
2021/11/23 01:48:34;;;;;;;7.63;6.00;;;2.10;99.90;;;;;;5034719;28;20277;-78
2021/11/23 01:51:01;;;;;;;7.03;6.32;;;2.20;99.90;;;;;;5034997;28;20642;-78
2021/11/23 01:53:28;;;;;;;7.90;5.93;;;2.10;99.90;;;;;;5034954;28;20681;-78
2021/11/23 01:55:55;;;;;;;7.47;5.55;;;2.10;99.90;;;;;;5034917;28;20253;-78
2021/11/23 01:58:23;;;;;;;6.28;5.68;;;2.20;99.90;;;;;;5034573;28;20301;-78
2021/11/23 02:00:49;;;;;;;7.40;6.13;;;2.20;99.90;;;;;;5034775;28;20269;-78
2021/11/23 02:03:17;;;;;;;7.82;6.50;;;2.30;99.90;;;;;;5034717;28;20309;-78
2021/11/23 02:05:44;;;;;;;7.65;6.70;;;2.20;99.90;;;;;;5034895;28;20590;-78
2021/11/23 02:08:11;;;;;;;8.90;6.45;;;2.30;99.90;;;;;;5034777;28;20187;-77
2021/11/23 02:10:38;;;;;;;13.02;7.75;;;2.40;99.90;;;;;;5034394;28;20718;-77
2021/11/23 02:13:05;;;;;;;8.23;6.90;;;2.30;99.90;;;;;;5034546;28;20193;-77
2021/11/23 02:15:33;;;;;;;7.53;6.70;;;2.30;99.90;;;;;;5034372;28;20218;-77
2021/11/23 02:18:00;;;;;;;9.38;7.13;;;2.40;99.90;;;;;;5034628;28;20217;-77
2021/11/23 02:20:28;;;;;;;6.43;5.78;;;2.50;99.90;;;;;;5034251;28;20282;-78
2021/11/23 02:22:55;;;;;;;6.95;6.25;;;2.40;99.90;;;;;;5034562;28;20287;-78
2021/11/23 02:25:21;;;;;;;7.50;6.10;;;2.50;99.90;;;;;;5034404;28;20233;-78
2021/11/23 02:27:49;;;;;;;12.15;6.20;;;2.40;99.90;;;;;;5034266;28;20547;-78
2021/11/23 02:30:16;;;;;;;6.55;5.95;;;2.40;99.90;;;;;;5034083;28;20186;-78
2021/11/23 02:32:45;;;;;;;12.20;7.38;;;2.40;99.90;;;;;;5034281;28;20591;-78
2021/11/23 02:35:13;;;;;;;8.80;6.90;;;2.40;99.90;;;;;;5034198;28;20282;-79
2021/11/23 02:37:47;;;;;;;10.65;6.28;;;2.50;99.90;;;;;;5026223;28;20301;-78
2021/11/23 02:40:14;;;;;;;16.65;7.80;;;2.50;99.90;;;;;;5034094;28;20681;-78
2021/11/23 02:42:41;;;;;;;9.50;7.70;;;2.50;99.90;;;;;;5026470;28;20221;-79
2021/11/23 02:45:08;;;;;;;14.48;7.80;;;2.50;99.90;;;;;;5034006;28;20270;-79
2021/11/23 02:47:37;;;;;;;9.60;7.78;;;2.50;99.90;;;;;;5033635;28;20670;-79
2021/11/23 02:50:06;;;;;;;9.57;7.70;;;2.50;99.90;;;;;;5034065;28;20570;-78
2021/11/23 02:52:33;;;;;;;11.82;7.15;;;2.50;99.90;;;;;;5033503;28;20232;-78
2021/11/23 02:55:04;;;;;;;10.48;7.95;;;2.60;99.90;;;;;;5033669;28;20724;-77
2021/11/23 02:57:35;;;;;;;8.05;7.25;;;2.60;99.90;;;;;;5033598;28;20301;-77
2021/11/23 03:00:05;;;;;;;8.02;7.10;;;2.70;99.90;;;;;;5033998;28;20218;-77
2021/11/23 03:02:31;;;;;;;10.10;7.63;;;2.80;99.90;;;;;;5033498;28;20190;-77
2021/11/23 03:04:59;;;;;;;8.38;6.40;;;2.90;99.90;;;;;;5033759;28;20733;-77
2021/11/23 03:07:26;;;;;;;9.57;7.60;;;3.00;99.90;;;;;;5033470;28;20249;-77
2021/11/23 03:09:53;;;;;;;9.27;7.13;;;3.10;99.90;;;;;;5033490;28;20273;-77
2021/11/23 03:12:23;;;;;;;9.18;7.25;;;3.10;99.90;;;;;;5033410;28;20199;-77
2021/11/23 03:14:51;;;;;;;9.13;7.40;;;3.20;99.90;;;;;;5033593;28;20266;-77
2021/11/23 03:17:20;;;;;;;8.10;7.10;;;3.20;99.90;;;;;;5033262;28;20301;-78
2021/11/23 03:19:48;;;;;;;10.93;7.80;;;3.30;99.90;;;;;;5033378;28;20218;-78
2021/11/23 03:22:16;;;;;;;13.02;7.60;;;3.30;99.90;;;;;;5033125;28;20257;-78
2021/11/23 03:24:43;;;;;;;9.80;7.13;;;3.40;99.90;;;;;;5033301;28;20274;-77
2021/11/23 03:27:11;;;;;;;10.88;7.22;;;3.50;99.90;;;;;;5033311;28;20266;-78
2021/11/23 03:29:40;;;;;;;8.50;7.35;;;3.50;99.90;;;;;;5033065;28;20274;-78
2021/11/23 03:32:09;;;;;;;8.20;7.03;;;3.60;99.90;;;;;;5033356;28;20225;-77
2021/11/23 03:34:37;;;;;;;9.48;8.40;;;3.70;99.90;;;;;;5032742;28;20278;-78
2021/11/23 03:37:06;;;;;;;8.90;7.40;;;3.80;99.90;;;;;;5033227;28;20205;-79
2021/11/23 03:39:33;;;;;;;8.93;7.18;;;3.80;99.90;;;;;;5033035;28;20329;-78
2021/11/23 03:42:00;;;;;;;8.18;7.38;;;3.80;99.90;;;;;;5032607;28;20211;-78
2021/11/23 03:44:27;;;;;;;8.95;7.50;;;3.90;99.90;;;;;;5032627;28;20709;-79
2021/11/23 03:46:55;;;;;;;12.35;8.32;;;3.90;99.90;;;;;;5032792;28;20185;-78
2021/11/23 03:49:22;;;;;;;10.93;8.18;;;4.00;99.90;;;;;;5032487;28;20222;-78
2021/11/23 03:51:48;;;;;;;13.30;8.98;;;4.00;99.90;;;;;;5032656;28;20649;-78
2021/11/23 03:54:15;;;;;;;10.98;8.65;;;4.10;99.90;;;;;;5032396;28;20278;-78
2021/11/23 03:56:42;;;;;;;8.95;7.65;;;4.10;99.90;;;;;;5032030;28;20249;-78
2021/11/23 03:59:08;;;;;;;8.90;7.88;;;4.20;99.90;;;;;;5032658;28;20301;-78
2021/11/23 04:01:35;;;;;;;12.32;8.00;;;4.20;99.90;;;;;;5032522;28;20221;-78
2021/11/23 04:04:03;;;;;;;10.38;7.55;;;4.10;99.90;;;;;;5032441;28;20634;-78
2021/11/23 04:06:30;;;;;;;8.23;7.43;;;4.10;99.90;;;;;;5032245;28;20186;-78
2021/11/23 04:08:56;;;;;;;9.65;7.25;;;4.20;99.90;;;;;;5032666;28;20211;-78
2021/11/23 04:11:23;;;;;;;11.48;8.77;;;4.20;99.90;;;;;;5032511;28;20282;-78
2021/11/23 04:13:50;;;;;;;9.15;8.18;;;4.20;99.90;;;;;;5032518;28;20218;-77
2021/11/23 04:16:17;;;;;;;10.43;8.93;;;4.20;99.90;;;;;;5032087;28;20282;-77
2021/11/23 04:18:44;;;;;;;14.30;8.50;;;4.20;99.90;;;;;;5031940;28;20214;-77
2021/11/23 04:21:12;;;;;;;10.05;7.95;;;4.20;99.90;;;;;;5032472;28;20214;-77
2021/11/23 04:23:39;;;;;;;10.05;8.77;;;4.20;99.90;;;;;;5024329;28;20269;-77
2021/11/23 04:26:06;;;;;;;10.60;8.93;;;4.20;99.90;;;;;;5032220;28;20237;-78
2021/11/23 04:28:33;;;;;;;14.40;8.60;;;4.20;99.90;;;;;;5032367;28;20194;-78
2021/11/23 04:30:59;;;;;;;9.13;8.00;;;4.20;99.90;;;;;;5032047;28;20277;-77
2021/11/23 04:33:26;;;;;;;12.85;8.10;;;4.20;99.90;;;;;;5032195;28;20657;-78
2021/11/23 04:35:52;;;;;;;17.38;9.52;;;4.10;99.90;;;;;;5032008;28;20253;-78
2021/11/23 04:38:21;;;;;;;10.18;9.13;;;4.10;99.90;;;;;;5031766;28;20221;-78
2021/11/23 04:40:47;;;;;;;11.10;8.73;;;4.10;99.90;;;;;;5031938;28;20312;-78
2021/11/23 04:43:14;;;;;;;11.65;8.65;;;4.10;99.90;;;;;;5031977;28;20278;-77
2021/11/23 04:45:41;;;;;;;11.45;8.88;;;4.20;99.90;;;;;;5031583;28;20274;-77
2021/11/23 04:48:08;;;;;;;11.13;9.73;;;4.20;99.90;;;;;;5031951;28;20265;-78
2021/11/23 04:50:35;;;;;;;10.80;8.48;;;4.20;99.90;;;;;;5031651;28;20225;-78
2021/11/23 04:53:03;;;;;;;16.80;8.68;;;4.30;99.90;;;;;;5032151;28;20269;-78
2021/11/23 04:55:31;;;;;;;11.88;8.48;;;4.30;99.90;;;;;;5031677;28;20218;-78
2021/11/23 04:57:58;;;;;;;10.27;9.05;;;4.30;99.90;;;;;;5031588;28;20214;-78
2021/11/23 05:00:25;;;;;;;11.63;9.35;;;4.30;99.90;;;;;;5031662;28;20286;-78
2021/11/23 05:02:51;;;;;;;13.57;9.02;;;4.30;99.90;;;;;;5031912;28;20186;-78
2021/11/23 05:05:18;;;;;;;11.68;8.55;;;4.30;99.90;;;;;;5031804;28;20191;-78
2021/11/23 05:07:45;;;;;;;14.68;9.45;;;4.40;99.90;;;;;;5033350;28;20233;-78
2021/11/23 05:10:14;;;;;;;17.33;9.75;;;4.40;99.90;;;;;;5035704;28;20309;-78
2021/11/23 05:12:42;;;;;;;10.05;9.00;;;4.40;99.90;;;;;;5027680;28;20275;-79
2021/11/23 05:15:11;;;;;;;12.93;8.57;;;4.50;99.90;;;;;;5036027;28;20218;-78
2021/11/23 05:17:38;;;;;;;14.02;9.52;;;4.50;99.90;;;;;;5035830;28;20214;-77
2021/11/23 05:20:05;;;;;;;11.27;8.77;;;4.50;99.90;;;;;;5035655;28;20273;-77
2021/11/23 05:22:32;;;;;;;11.57;9.45;;;4.50;99.90;;;;;;5035332;28;20282;-77
2021/11/23 05:24:59;;;;;;;10.45;9.35;;;4.50;99.90;;;;;;5035532;28;20179;-78
2021/11/23 05:27:25;;;;;;;10.70;8.60;;;4.50;99.90;;;;;;5034261;28;20288;-78
2021/11/23 05:29:53;;;;;;;10.65;8.75;;;4.60;99.90;;;;;;5034144;28;20195;-78
2021/11/23 05:32:20;;;;;;;14.20;10.05;;;4.60;99.90;;;;;;5034713;28;20277;-78
2021/11/23 05:34:47;;;;;;;17.08;9.30;;;4.60;99.90;;;;;;5033965;28;20277;-79
2021/11/23 05:37:14;;;;;;;11.93;8.90;;;4.70;99.90;;;;;;5033685;28;20274;-79
2021/11/23 05:39:40;;;;;;;13.00;9.65;;;4.70;99.90;;;;;;5033465;28;20301;-79
2021/11/23 05:42:07;;;;;;;12.82;8.85;;;4.70;99.90;;;;;;5034089;28;20213;-79
2021/11/23 05:44:33;;;;;;;11.55;9.35;;;4.80;99.90;;;;;;5034292;28;20187;-80
2021/11/23 05:47:01;;;;;;;14.80;9.50;;;4.90;99.90;;;;;;5031752;28;20269;-79
2021/11/23 05:49:28;;;;;;;13.02;9.63;;;4.80;99.90;;;;;;5034957;28;20278;-79
2021/11/23 05:51:55;;;;;;;12.80;9.20;;;4.80;99.90;;;;;;5035054;28;20283;-80
2021/11/23 05:54:22;;;;;;;14.10;9.40;;;4.80;99.90;;;;;;5034972;28;20646;-79
2021/11/23 05:56:48;;;;;;;17.00;10.32;;;4.90;99.90;;;;;;5035076;28;20220;-79
2021/11/23 05:59:16;;;;;;;16.98;10.13;;;4.90;99.90;;;;;;5035431;28;20288;-79
2021/11/23 06:01:43;;;;;;;13.60;9.25;;;4.90;99.90;;;;;;5035129;28;20639;-79
2021/11/23 06:04:10;;;;;;;18.17;11.13;;;4.90;99.90;;;;;;5032176;28;20279;-79
2021/11/23 06:06:37;;;;;;;14.80;10.23;;;5.00;99.90;;;;;;5034285;28;20197;-79
2021/11/23 06:09:05;;;;;;;13.57;9.13;;;5.00;99.90;;;;;;5034495;28;20322;-79
2021/11/23 06:11:32;;;;;;;15.23;9.82;;;5.00;99.90;;;;;;5034771;28;20253;-80
2021/11/23 06:13:59;;;;;;;11.32;9.70;;;5.00;99.90;;;;;;5035036;28;20611;-79
2021/11/23 06:16:26;;;;;;;16.67;9.65;;;5.10;99.90;;;;;;5034757;28;20265;-78
2021/11/23 06:18:53;;;;;;;15.02;10.25;;;5.10;99.90;;;;;;5034335;28;20210;-80
2021/11/23 06:21:21;;;;;;;13.90;10.23;;;5.20;99.90;;;;;;5032629;28;20191;-78
2021/11/23 06:23:49;;;;;;;12.20;9.35;;;5.20;99.90;;;;;;5035055;28;20266;-78
2021/11/23 06:26:18;;;;;;;16.55;11.00;;;5.10;99.90;;;;;;5034441;28;20305;-78
2021/11/23 06:28:45;;;;;;;17.92;10.75;;;5.20;99.90;;;;;;5034378;28;20298;-78
2021/11/23 06:31:12;;;;;;;15.38;9.75;;;5.20;99.90;;;;;;5034233;28;20226;-78
2021/11/23 06:33:38;;;;;;;14.05;9.43;;;5.20;99.90;;;;;;5034454;28;20619;-78
2021/11/23 06:36:05;;;;;;;18.63;10.98;;;5.30;99.90;;;;;;5034564;28;20277;-78
2021/11/23 06:38:33;;;;;;;17.95;12.00;;;5.30;99.90;;;;;;5034515;28;20276;-78
2021/11/23 06:40:59;;;;;;;19.23;12.05;;;5.30;99.90;;;;;;5034495;28;20236;-78
2021/11/23 06:43:26;;;;;;;16.00;10.63;;;5.30;99.90;;;;;;5034504;28;20183;-78
2021/11/23 06:45:55;;;;;;;26.33;13.50;;;5.40;99.90;;;;;;5034276;28;20232;-79
2021/11/23 06:48:22;;;;;;;15.82;10.57;;;5.40;99.90;;;;;;5034136;28;20198;-79
2021/11/23 06:50:48;;;;;;;14.02;12.13;;;5.40;99.90;;;;;;5034487;28;20266;-79
2021/11/23 06:53:15;;;;;;;18.85;12.20;;;5.50;99.90;;;;;;5034192;28;20281;-79
2021/11/23 06:55:43;;;;;;;14.20;10.90;;;5.60;99.90;;;;;;5034278;28;20218;-79
2021/11/23 06:58:11;;;;;;;19.63;14.70;;;5.50;99.90;;;;;;5034113;28;20607;-79
2021/11/23 07:00:37;;;;;;;22.48;12.80;;;5.60;99.90;;;;;;5033963;28;20613;-79
2021/11/23 07:03:04;;;;;;;19.02;11.60;;;5.60;99.90;;;;;;5034216;28;20275;-79
2021/11/23 07:05:31;;;;;;;21.08;12.10;;;5.70;99.90;;;;;;5034305;28;20281;-79
2021/11/23 07:07:57;;;;;;;16.67;12.55;;;5.70;99.90;;;;;;5034057;28;20277;-79
2021/11/23 07:10:24;;;;;;;22.02;12.15;;;5.70;99.90;;;;;;5033676;28;20741;-79
2021/11/23 07:12:52;;;;;;;18.90;12.35;;;5.70;99.90;;;;;;5033981;28;20666;-79
2021/11/23 07:15:19;;;;;;;19.50;12.00;;;5.80;99.90;;;;;;5034446;28;20530;-79
2021/11/23 07:17:45;;;;;;;21.13;12.27;;;5.80;99.90;;;;;;5033737;28;20186;-78
2021/11/23 07:20:12;;;;;;;18.95;13.55;;;5.90;99.90;;;;;;5033544;28;20264;-78
2021/11/23 07:22:39;;;;;;;20.77;13.55;;;5.90;99.90;;;;;;5033519;28;20697;-79
2021/11/23 07:25:06;;;;;;;22.77;13.70;;;6.00;99.90;;;;;;5033888;28;20601;-79
2021/11/23 07:27:32;;;;;;;19.23;11.57;;;6.00;99.90;;;;;;5033428;28;20290;-78
2021/11/23 07:30:00;;;;;;;21.52;11.90;;;6.10;99.90;;;;;;5032664;28;20277;-77
2021/11/23 07:32:27;;;;;;;19.52;12.32;;;6.10;99.90;;;;;;5033244;28;20662;-78
2021/11/23 07:34:53;;;;;;;20.88;12.82;;;6.10;99.90;;;;;;5033866;28;20225;-79
2021/11/23 07:37:20;;;;;;;17.23;11.50;;;6.20;99.90;;;;;;5033512;28;20282;-78
2021/11/23 07:39:47;;;;;;;24.25;12.88;;;6.20;99.90;;;;;;5033565;28;20222;-78
2021/11/23 07:42:14;;;;;;;18.55;12.18;;;6.20;99.90;;;;;;5033097;28;20194;-79
2021/11/23 07:44:41;;;;;;;18.65;12.13;;;6.20;99.90;;;;;;5017459;28;20229;-79
2021/11/23 07:47:09;;;;;;;18.40;11.30;;;6.20;99.90;;;;;;5033427;28;20183;-79
2021/11/23 07:49:35;;;;;;;23.65;12.90;;;6.20;99.90;;;;;;5033572;28;20943;-79
2021/11/23 07:52:02;;;;;;;19.88;12.35;;;6.20;99.90;;;;;;5033011;28;20277;-78
2021/11/23 07:54:29;;;;;;;18.02;13.25;;;6.20;99.90;;;;;;5033265;28;20614;-78
2021/11/23 07:56:55;;;;;;;18.98;12.82;;;6.30;99.90;;;;;;5033102;28;20305;-78
2021/11/23 07:59:22;;;;;;;23.38;13.70;;;6.30;99.90;;;;;;5032786;28;20242;-78
2021/11/23 08:01:48;;;;;;;20.13;13.38;;;6.30;99.90;;;;;;5033335;28;20222;-78
2021/11/23 08:04:16;;;;;;;37.25;21.17;;;6.30;99.90;;;;;;5031785;28;20601;-79
2021/11/23 08:06:43;;;;;;;19.10;12.88;;;6.30;99.90;;;;;;5031757;28;20265;-79
2021/11/23 08:09:09;;;;;;;18.85;11.70;;;6.40;99.90;;;;;;5031841;28;20278;-79
2021/11/23 08:11:36;;;;;;;18.13;12.85;;;6.30;99.90;;;;;;5032508;28;20194;-80
2021/11/23 08:14:02;;;;;;;18.60;11.77;;;6.30;99.90;;;;;;5032172;28;20248;-79
2021/11/23 08:16:29;;;;;;;16.73;11.63;;;6.40;99.90;;;;;;5032413;28;20229;-80
2021/11/23 08:18:56;;;;;;;14.27;10.50;;;6.40;99.90;;;;;;5032998;28;20215;-79
2021/11/23 08:21:25;;;;;;;18.23;11.70;;;6.40;99.90;;;;;;5032833;28;20729;-80
2021/11/23 08:23:51;;;;;;;15.38;10.32;;;6.40;99.90;;;;;;5032801;28;20964;-79
2021/11/23 08:26:18;;;;;;;19.60;11.98;;;6.50;99.90;;;;;;5032705;28;20605;-80
2021/11/23 08:28:46;;;;;;;17.30;11.27;;;6.50;99.90;;;;;;5033072;28;20575;-79
2021/11/23 08:31:12;;;;;;;17.88;10.73;;;6.50;99.90;;;;;;5032816;28;20445;-80
2021/11/23 08:33:40;;;;;;;15.07;10.20;;;6.60;99.90;;;;;;5032818;28;20614;-79
2021/11/23 08:36:07;;;;;;;20.25;11.68;;;6.60;99.90;;;;;;5032674;28;20198;-79
2021/11/23 08:38:35;;;;;;;15.15;11.18;;;6.70;99.90;;;;;;5032436;28;20230;-79
2021/11/23 08:41:02;;;;;;;23.38;10.77;;;6.70;99.90;;;;;;5032277;28;20193;-79
2021/11/23 08:43:28;;;;;;;17.70;12.13;;;6.80;99.90;;;;;;5032669;28;20290;-79
2021/11/23 08:45:55;;;;;;;14.80;10.67;;;6.80;99.90;;;;;;5032677;28;20219;-80
2021/11/23 08:48:21;;;;;;;19.15;11.60;;;6.80;99.90;;;;;;5032533;28;20531;-79
2021/11/23 08:50:48;;;;;;;17.87;11.33;;;6.80;99.90;;;;;;5032584;28;20190;-80
2021/11/23 08:53:15;;;;;;;15.25;11.63;;;6.80;99.90;;;;;;5032348;28;20437;-80
2021/11/23 08:55:43;;;;;;;16.70;11.02;;;6.90;99.90;;;;;;5032192;28;20265;-78
2021/11/23 08:58:10;;;;;;;17.77;11.30;;;6.90;99.90;;;;;;5032536;28;20241;-78
2021/11/23 09:00:38;;;;;;;18.40;11.30;;;6.90;99.90;;;;;;5032484;28;20481;-78
2021/11/23 09:03:05;;;;;;;20.10;11.80;;;6.90;99.90;;;;;;5032332;28;20446;-78
2021/11/23 09:05:36;;;;;;;18.63;10.80;;;6.90;99.90;;;;;;5032485;28;20449;-78
2021/11/23 09:08:04;;;;;;;19.93;11.93;;;7.00;99.90;;;;;;5032288;28;20536;-78
2021/11/23 09:10:35;;;;;;;16.90;11.20;;;7.00;99.90;;;;;;5032439;28;20840;-79
2021/11/23 09:13:04;;;;;;;19.00;11.25;;;7.10;99.90;;;;;;5032503;28;20190;-78
2021/11/23 09:15:31;;;;;;;15.80;10.50;;;7.10;99.90;;;;;;5032479;28;20273;-78
2021/11/23 09:18:01;;;;;;;15.10;10.50;;;7.10;99.90;;;;;;5032252;28;20478;-78
2021/11/23 09:20:34;;;;;;;13.90;10.20;;;7.10;99.90;;;;;;5032080;28;20567;-79
2021/11/23 09:23:01;;;;;;;18.00;11.13;;;7.20;99.90;;;;;;5032402;28;20179;-78
2021/11/23 09:25:28;;;;;;;13.33;10.80;;;7.20;99.90;;;;;;5032194;28;20968;-79
2021/11/23 09:27:59;;;;;;;16.03;10.40;;;7.30;99.90;;;;;;5032313;28;20449;-78
2021/11/23 09:30:28;;;;;;;13.13;10.57;;;7.30;99.90;;;;;;5032277;28;20449;-78
2021/11/23 09:32:55;;;;;;;13.03;9.97;;;7.30;99.90;;;;;;5032064;28;20477;-78
2021/11/23 09:35:22;;;;;;;11.87;8.97;;;7.40;99.90;;;;;;5032304;28;20853;-78
2021/11/23 09:37:49;;;;;;;17.03;8.93;;;7.40;99.90;;;;;;5032113;28;20495;-78
2021/11/23 09:40:17;;;;;;;14.80;9.43;;;7.40;99.90;;;;;;5031957;28;20567;-81
2021/11/23 09:42:44;;;;;;;15.27;9.53;;;7.50;99.90;;;;;;5032197;28;20880;-80
2021/11/23 09:45:11;;;;;;;10.40;8.03;;;7.50;99.90;;;;;;5031996;28;20445;-80
2021/11/23 09:47:39;;;;;;;13.00;8.47;;;7.50;99.90;;;;;;5032046;28;20460;-78
2021/11/23 09:50:07;;;;;;;17.40;8.77;;;7.50;99.90;;;;;;5032063;28;20449;-78
2021/11/23 09:52:34;;;;;;;11.53;8.97;;;7.60;99.90;;;;;;5031892;28;20445;-80
2021/11/23 09:55:02;;;;;;;15.27;9.30;;;7.70;99.90;;;;;;5034992;28;20960;-80
2021/11/23 09:57:29;;;;;;;14.20;9.60;;;7.70;99.90;;;;;;5035742;28;20441;-81
2021/11/23 09:59:55;;;;;;;13.10;8.80;;;7.70;99.90;;;;;;5034811;28;20561;-82
2021/11/23 10:02:26;;;;;;;13.60;9.30;;;7.70;99.90;;;;;;5030358;28;20518;-82
2021/11/23 10:04:59;;;;;;;14.53;8.80;;;7.70;99.90;;;;;;5034472;28;20484;-82
2021/11/23 10:07:35;;;;;;;14.00;8.90;;;7.70;99.90;;;;;;5034810;28;20996;-82
2021/11/23 10:10:11;;;;;;;12.43;8.40;;;7.70;99.90;;;;;;5034797;28;20953;-82
2021/11/23 10:12:38;;;;;;;11.03;8.47;;;7.70;99.90;;;;;;5034798;28;20476;-81
2021/11/23 10:15:11;;;;;;;13.33;9.60;;;7.70;99.90;;;;;;5034779;28;20540;-81
2021/11/23 10:17:39;;;;;;;16.20;9.67;;;7.70;99.90;;;;;;5035014;28;20445;-82
2021/11/23 10:20:23;;;;;;;13.20;10.50;;;7.70;99.90;;;;;;5034659;28;21042;-82
2021/11/23 10:22:50;;;;;;;13.73;9.37;;;7.70;99.90;;;;;;5031391;28;20448;-82
2021/11/23 10:25:16;;;;;;;14.93;9.90;;;7.70;99.90;;;;;;5034349;28;20861;-82
2021/11/23 10:27:44;;;;;;;14.90;9.53;;;7.70;99.90;;;;;;5034872;28;20528;-82
2021/11/23 10:30:12;;;;;;;14.10;11.10;;;7.70;99.90;;;;;;5034813;28;20445;-82
2021/11/23 10:32:43;;;;;;;31.77;20.80;;;7.70;99.90;;;;;;5029620;28;21008;-82
2021/11/23 10:35:16;;;;;;;17.50;12.90;;;7.60;99.90;;;;;;5034357;28;20953;-83
2021/11/23 10:37:44;;;;;;;15.93;11.27;;;7.60;99.90;;;;;;5034323;28;20567;-83
2021/11/23 10:40:18;;;;;;;16.10;11.10;;;7.60;99.90;;;;;;5034469;28;20948;-82
2021/11/23 10:42:49;;;;;;;17.87;10.70;;;7.60;99.90;;;;;;5030452;28;20449;-83
2021/11/23 10:45:16;;;;;;;17.77;11.70;;;7.60;99.90;;;;;;5023020;28;20545;-82
2021/11/23 10:47:46;;;;;;;19.40;11.30;;;7.60;99.90;;;;;;5034357;28;20535;-82
2021/11/23 10:50:13;;;;;;;14.90;10.13;;;7.50;99.90;;;;;;5034020;28;20549;-83
2021/11/23 10:52:44;;;;;;;16.93;10.83;;;7.50;99.90;;;;;;5029866;28;20928;-83
2021/11/23 10:55:27;;;;;;;16.63;10.57;;;7.50;99.90;;;;;;5034051;28;20908;-83
2021/11/23 10:57:55;;;;;;;23.30;11.23;;;7.50;99.90;;;;;;5034444;28;20960;-83
2021/11/23 11:00:22;;;;;;;18.17;11.60;;;7.50;99.90;;;;;;5034264;28;20538;-84
2021/11/23 11:02:51;;;;;;;15.30;11.53;;;7.50;99.90;;;;;;5034175;28;20572;-83
2021/11/23 11:05:18;;;;;;;16.43;11.27;;;7.60;99.90;;;;;;5023190;28;20802;-83
2021/11/23 11:07:47;;;;;;;13.77;10.10;;;7.60;99.90;;;;;;5034374;28;20488;-82
2021/11/23 11:10:15;;;;;;;13.07;10.75;;;7.60;99.90;;;;;;5034079;28;20543;-84
2021/11/23 11:12:42;;;;;;;16.33;9.10;;;7.70;99.90;;;;;;5034184;28;20187;-83
2021/11/23 11:15:11;;;;;;;14.20;9.17;;;7.70;99.90;;;;;;5033668;28;20198;-83
2021/11/23 11:17:39;;;;;;;18.83;9.23;;;7.80;99.90;;;;;;5034005;28;20445;-83
2021/11/23 11:20:08;;;;;;;15.53;10.50;;;7.80;99.90;;;;;;5033836;28;20461;-83
2021/11/23 11:22:35;;;;;;;13.13;10.20;;;7.80;99.90;;;;;;5033672;28;20945;-83
2021/11/23 11:25:12;;;;;;;12.77;9.33;;;7.80;99.90;;;;;;5033842;28;20883;-83
2021/11/23 11:27:44;;;;;;;11.37;8.90;;;7.90;99.90;;;;;;5033896;28;20456;-82
2021/11/23 11:30:23;;;;;;;13.97;9.87;;;7.90;99.90;;;;;;5033460;28;20964;-82
2021/11/23 11:32:51;;;;;;;13.03;9.13;;;8.00;99.90;;;;;;5030633;28;20544;-83
2021/11/23 11:35:24;;;;;;;14.50;9.37;;;8.00;99.90;;;;;;5033805;28;20453;-82
2021/11/23 11:37:52;;;;;;;14.07;10.30;;;8.00;99.90;;;;;;5027139;28;20495;-83
2021/11/23 11:40:26;;;;;;;12.43;8.33;;;8.00;99.90;;;;;;5033108;28;20465;-82
2021/11/23 11:42:59;;;;;;;14.43;9.30;;;8.00;99.90;;;;;;5033270;28;20449;-82
2021/11/23 11:45:38;;;;;;;14.00;9.70;;;8.10;99.90;;;;;;5033617;28;20461;-83
2021/11/23 11:48:42;;;;;;;14.43;9.77;;;8.10;99.90;;;;;;5033625;28;20853;-83
2021/11/23 11:51:11;;;;;;;17.30;10.57;;;8.10;99.90;;;;;;5032457;28;21039;-82
2021/11/23 11:53:41;;;;;;;17.10;10.63;;;8.10;99.90;;;;;;5033315;28;20469;-83
2021/11/23 11:56:09;;;;;;;15.37;11.33;;;8.10;99.90;;;;;;5033296;28;20885;-83
2021/11/23 11:58:51;;;;;;;14.20;10.50;;;8.10;99.90;;;;;;5033363;28;20838;-82
2021/11/23 12:01:26;;;;;;;17.37;11.70;;;8.10;99.90;;;;;;5022448;28;20564;-83
2021/11/23 12:04:11;;;;;;;15.07;10.30;;;8.20;99.90;;;;;;5033131;28;20484;-84
2021/11/23 12:07:03;;;;;;;15.20;10.80;;;8.20;99.90;;;;;;5028456;28;20426;-83
2021/11/23 12:09:32;;;;;;;13.70;11.00;;;8.20;99.90;;;;;;5024207;28;20492;-84
2021/11/23 12:12:29;;;;;;;12.80;9.30;;;8.10;99.90;;;;;;5033283;28;20483;-84
2021/11/23 12:15:08;;;;;;;13.67;9.53;;;8.10;99.90;;;;;;5030667;28;20473;-83
2021/11/23 12:17:50;;;;;;;13.80;9.93;;;8.20;99.90;;;;;;5032457;28;20449;-83
2021/11/23 12:20:31;;;;;;;17.53;11.30;;;8.20;99.90;;;;;;5032464;28;20560;-84
2021/11/23 12:23:17;;;;;;;13.67;9.57;;;8.30;99.90;;;;;;5032661;28;20948;-83
2021/11/23 12:25:56;;;;;;;19.97;9.80;;;8.30;99.90;;;;;;5033090;28;20861;-84
2021/11/23 12:28:26;;;;;;;16.63;10.00;;;8.40;99.90;;;;;;5033083;28;20597;-83
2021/11/23 12:30:53;;;;;;;13.23;8.97;;;8.40;99.90;;;;;;5032997;28;20441;-83
2021/11/23 12:33:20;;;;;;;12.60;8.90;;;8.40;99.90;;;;;;5033091;28;20628;-83
2021/11/23 12:35:48;;;;;;;13.30;9.10;;;8.40;99.90;;;;;;5032954;28;20445;-83
2021/11/23 12:38:26;;;;;;;12.27;8.00;;;8.40;99.90;;;;;;5033037;28;20444;-83
2021/11/23 12:40:53;;;;;;;11.20;8.47;;;8.50;99.90;;;;;;5032100;28;20575;-83
2021/11/23 12:43:20;;;;;;;11.73;8.23;;;8.50;99.90;;;;;;5032949;28;20511;-84
2021/11/23 12:45:48;;;;;;;12.73;8.10;;;8.50;99.90;;;;;;5032850;28;20895;-83
2021/11/23 12:48:17;;;;;;;12.70;8.43;;;8.50;99.90;;;;;;5032707;28;21006;-83
2021/11/23 12:50:44;;;;;;;14.40;8.00;;;8.50;99.90;;;;;;5032735;28;20794;-83